sensor_id;sensor_type;location;lat;lon;timestamp;P1;durP1;ratioP1;P2;durP2;ratioP2
15476;SDS011;7840;42.702;23.296;2023-03-31T00:00:29;18.70;;;10.90;;
15476;SDS011;7840;42.702;23.296;2023-03-31T00:02:56;18.40;;;10.77;;
15476;SDS011;7840;42.702;23.296;2023-03-31T00:05:23;15.47;;;9.97;;
15476;SDS011;7840;42.702;23.296;2023-03-31T00:07:52;15.37;;;10.47;;
15476;SDS011;7840;42.702;23.296;2023-03-31T00:10:26;16.87;;;11.10;;
15476;SDS011;7840;42.702;23.296;2023-03-31T00:12:54;21.53;;;10.57;;
15476;SDS011;7840;42.702;23.296;2023-03-31T00:15:21;16.00;;;10.70;;
15476;SDS011;7840;42.702;23.296;2023-03-31T00:17:48;16.50;;;11.07;;
15476;SDS011;7840;42.702;23.296;2023-03-31T00:20:16;21.27;;;12.37;;
15476;SDS011;7840;42.702;23.296;2023-03-31T00:22:43;22.30;;;10.60;;
15476;SDS011;7840;42.702;23.296;2023-03-31T00:25:11;19.13;;;10.43;;
15476;SDS011;7840;42.702;23.296;2023-03-31T00:27:41;16.97;;;11.00;;
15476;SDS011;7840;42.702;23.296;2023-03-31T00:30:09;20.27;;;12.00;;
15476;SDS011;7840;42.702;23.296;2023-03-31T00:32:37;21.53;;;14.33;;
15476;SDS011;7840;42.702;23.296;2023-03-31T00:35:04;20.40;;;12.50;;
15476;SDS011;7840;42.702;23.296;2023-03-31T00:37:32;23.90;;;13.67;;
15476;SDS011;7840;42.702;23.296;2023-03-31T00:40:00;24.50;;;14.53;;
15476;SDS011;7840;42.702;23.296;2023-03-31T00:42:31;24.47;;;14.60;;
15476;SDS011;7840;42.702;23.296;2023-03-31T00:47:53;20.83;;;14.30;;
15476;SDS011;7840;42.702;23.296;2023-03-31T00:50:21;22.63;;;16.43;;
15476;SDS011;7840;42.702;23.296;2023-03-31T00:52:50;23.23;;;14.70;;
15476;SDS011;7840;42.702;23.296;2023-03-31T00:55:22;22.00;;;14.50;;
15476;SDS011;7840;42.702;23.296;2023-03-31T00:57:51;22.67;;;15.53;;
15476;SDS011;7840;42.702;23.296;2023-03-31T01:00:21;20.90;;;13.57;;
15476;SDS011;7840;42.702;23.296;2023-03-31T01:02:49;24.30;;;13.60;;
15476;SDS011;7840;42.702;23.296;2023-03-31T01:05:21;15.70;;;11.23;;
15476;SDS011;7840;42.702;23.296;2023-03-31T01:07:49;18.37;;;12.17;;
15476;SDS011;7840;42.702;23.296;2023-03-31T01:10:17;18.97;;;13.30;;
15476;SDS011;7840;42.702;23.296;2023-03-31T01:12:44;20.03;;;12.30;;
15476;SDS011;7840;42.702;23.296;2023-03-31T01:15:13;19.17;;;13.30;;
15476;SDS011;7840;42.702;23.296;2023-03-31T01:17:40;23.73;;;14.13;;
15476;SDS011;7840;42.702;23.296;2023-03-31T01:20:11;18.70;;;12.80;;
15476;SDS011;7840;42.702;23.296;2023-03-31T01:28:35;28.00;;;12.20;;
15476;SDS011;7840;42.702;23.296;2023-03-31T01:31:30;17.13;;;11.33;;
15476;SDS011;7840;42.702;23.296;2023-03-31T01:34:13;17.77;;;10.30;;
15476;SDS011;7840;42.702;23.296;2023-03-31T01:37:03;15.50;;;10.13;;
15476;SDS011;7840;42.702;23.296;2023-03-31T01:42:23;17.70;;;9.47;;
15476;SDS011;7840;42.702;23.296;2023-03-31T01:44:54;15.33;;;8.30;;
15476;SDS011;7840;42.702;23.296;2023-03-31T01:47:26;18.23;;;8.73;;
15476;SDS011;7840;42.702;23.296;2023-03-31T01:49:58;14.03;;;8.70;;
15476;SDS011;7840;42.702;23.296;2023-03-31T01:52:27;12.40;;;8.10;;
15476;SDS011;7840;42.702;23.296;2023-03-31T01:54:59;11.93;;;7.50;;
15476;SDS011;7840;42.702;23.296;2023-03-31T01:57:30;17.27;;;8.13;;
15476;SDS011;7840;42.702;23.296;2023-03-31T02:00:00;12.50;;;8.17;;
15476;SDS011;7840;42.702;23.296;2023-03-31T02:02:30;14.60;;;8.77;;
15476;SDS011;7840;42.702;23.296;2023-03-31T02:04:58;17.33;;;8.77;;
15476;SDS011;7840;42.702;23.296;2023-03-31T02:07:28;13.67;;;8.70;;
15476;SDS011;7840;42.702;23.296;2023-03-31T02:09:58;14.37;;;7.93;;
15476;SDS011;7840;42.702;23.296;2023-03-31T02:12:27;16.27;;;8.43;;
15476;SDS011;7840;42.702;23.296;2023-03-31T02:14:58;12.43;;;8.30;;
15476;SDS011;7840;42.702;23.296;2023-03-31T02:17:26;12.00;;;8.47;;
15476;SDS011;7840;42.702;23.296;2023-03-31T02:19:57;18.33;;;8.93;;
15476;SDS011;7840;42.702;23.296;2023-03-31T02:22:28;14.80;;;8.37;;
15476;SDS011;7840;42.702;23.296;2023-03-31T02:24:57;16.43;;;8.57;;
15476;SDS011;7840;42.702;23.296;2023-03-31T02:27:27;17.40;;;9.17;;
15476;SDS011;7840;42.702;23.296;2023-03-31T02:29:58;13.47;;;7.97;;
15476;SDS011;7840;42.702;23.296;2023-03-31T02:32:28;14.93;;;8.83;;
15476;SDS011;7840;42.702;23.296;2023-03-31T02:34:56;13.73;;;8.50;;
15476;SDS011;7840;42.702;23.296;2023-03-31T02:37:24;14.17;;;9.27;;
15476;SDS011;7840;42.702;23.296;2023-03-31T02:39:52;10.93;;;8.03;;
15476;SDS011;7840;42.702;23.296;2023-03-31T02:42:20;15.37;;;8.70;;
15476;SDS011;7840;42.702;23.296;2023-03-31T02:44:48;12.53;;;8.23;;
15476;SDS011;7840;42.702;23.296;2023-03-31T02:47:17;8.27;;;6.53;;
15476;SDS011;7840;42.702;23.296;2023-03-31T02:49:45;9.93;;;5.33;;
15476;SDS011;7840;42.702;23.296;2023-03-31T02:52:21;8.80;;;4.23;;
15476;SDS011;7840;42.702;23.296;2023-03-31T03:00:22;4.90;;;2.73;;
15476;SDS011;7840;42.702;23.296;2023-03-31T03:02:57;4.10;;;2.77;;
15476;SDS011;7840;42.702;23.296;2023-03-31T03:05:31;6.90;;;2.80;;
15476;SDS011;7840;42.702;23.296;2023-03-31T03:08:03;6.33;;;2.83;;
15476;SDS011;7840;42.702;23.296;2023-03-31T03:10:34;4.17;;;2.47;;
15476;SDS011;7840;42.702;23.296;2023-03-31T03:13:05;4.77;;;2.63;;
15476;SDS011;7840;42.702;23.296;2023-03-31T03:15:35;6.23;;;3.47;;
15476;SDS011;7840;42.702;23.296;2023-03-31T03:18:05;4.17;;;3.30;;
15476;SDS011;7840;42.702;23.296;2023-03-31T03:20:32;5.60;;;3.03;;
15476;SDS011;7840;42.702;23.296;2023-03-31T03:23:00;6.20;;;3.13;;
15476;SDS011;7840;42.702;23.296;2023-03-31T03:25:28;6.87;;;3.17;;
15476;SDS011;7840;42.702;23.296;2023-03-31T03:27:55;6.13;;;3.27;;
15476;SDS011;7840;42.702;23.296;2023-03-31T03:30:22;5.90;;;3.37;;
15476;SDS011;7840;42.702;23.296;2023-03-31T03:32:50;6.87;;;2.97;;
15476;SDS011;7840;42.702;23.296;2023-03-31T03:35:20;5.93;;;3.10;;
15476;SDS011;7840;42.702;23.296;2023-03-31T03:37:47;5.20;;;3.30;;
15476;SDS011;7840;42.702;23.296;2023-03-31T03:40:14;4.43;;;3.00;;
15476;SDS011;7840;42.702;23.296;2023-03-31T03:42:42;7.47;;;3.50;;
15476;SDS011;7840;42.702;23.296;2023-03-31T03:45:09;9.00;;;3.10;;
15476;SDS011;7840;42.702;23.296;2023-03-31T03:47:37;7.57;;;3.43;;
15476;SDS011;7840;42.702;23.296;2023-03-31T03:50:04;6.00;;;3.97;;
15476;SDS011;7840;42.702;23.296;2023-03-31T03:52:33;8.90;;;4.13;;
15476;SDS011;7840;42.702;23.296;2023-03-31T03:55:01;8.03;;;4.07;;
15476;SDS011;7840;42.702;23.296;2023-03-31T03:57:28;8.30;;;4.37;;
15476;SDS011;7840;42.702;23.296;2023-03-31T03:59:56;7.67;;;4.33;;
15476;SDS011;7840;42.702;23.296;2023-03-31T04:02:23;8.80;;;4.83;;
15476;SDS011;7840;42.702;23.296;2023-03-31T04:04:52;7.87;;;4.67;;
15476;SDS011;7840;42.702;23.296;2023-03-31T04:07:19;11.83;;;4.93;;
15476;SDS011;7840;42.702;23.296;2023-03-31T04:09:48;9.13;;;4.87;;
15476;SDS011;7840;42.702;23.296;2023-03-31T04:12:15;11.83;;;5.27;;
15476;SDS011;7840;42.702;23.296;2023-03-31T04:14:43;10.23;;;5.23;;
15476;SDS011;7840;42.702;23.296;2023-03-31T04:17:10;10.00;;;4.80;;
15476;SDS011;7840;42.702;23.296;2023-03-31T04:19:39;7.60;;;4.20;;
15476;SDS011;7840;42.702;23.296;2023-03-31T04:22:07;9.17;;;4.37;;
15476;SDS011;7840;42.702;23.296;2023-03-31T04:24:35;8.37;;;3.90;;
15476;SDS011;7840;42.702;23.296;2023-03-31T04:27:04;12.53;;;5.20;;
15476;SDS011;7840;42.702;23.296;2023-03-31T04:29:32;8.87;;;4.30;;
15476;SDS011;7840;42.702;23.296;2023-03-31T04:32:01;8.33;;;4.00;;
15476;SDS011;7840;42.702;23.296;2023-03-31T04:34:28;8.80;;;5.00;;
15476;SDS011;7840;42.702;23.296;2023-03-31T04:36:59;7.43;;;4.80;;
15476;SDS011;7840;42.702;23.296;2023-03-31T04:39:28;7.67;;;4.33;;
15476;SDS011;7840;42.702;23.296;2023-03-31T04:41:56;5.43;;;3.43;;
15476;SDS011;7840;42.702;23.296;2023-03-31T04:44:24;9.47;;;4.63;;
15476;SDS011;7840;42.702;23.296;2023-03-31T04:46:52;8.87;;;5.00;;
15476;SDS011;7840;42.702;23.296;2023-03-31T04:49:19;11.63;;;6.03;;
15476;SDS011;7840;42.702;23.296;2023-03-31T04:51:47;8.17;;;4.70;;
15476;SDS011;7840;42.702;23.296;2023-03-31T04:54:14;11.43;;;5.80;;
15476;SDS011;7840;42.702;23.296;2023-03-31T04:56:41;10.37;;;5.27;;
15476;SDS011;7840;42.702;23.296;2023-03-31T04:59:09;9.47;;;4.87;;
15476;SDS011;7840;42.702;23.296;2023-03-31T05:01:37;12.27;;;5.20;;
15476;SDS011;7840;42.702;23.296;2023-03-31T05:04:09;9.50;;;5.20;;
15476;SDS011;7840;42.702;23.296;2023-03-31T05:06:36;10.53;;;4.83;;
15476;SDS011;7840;42.702;23.296;2023-03-31T05:09:04;7.77;;;4.93;;
15476;SDS011;7840;42.702;23.296;2023-03-31T05:11:33;8.67;;;6.00;;
15476;SDS011;7840;42.702;23.296;2023-03-31T05:14:02;11.73;;;7.27;;
15476;SDS011;7840;42.702;23.296;2023-03-31T05:16:29;12.73;;;6.43;;
15476;SDS011;7840;42.702;23.296;2023-03-31T05:18:58;6.97;;;5.07;;
15476;SDS011;7840;42.702;23.296;2023-03-31T05:21:26;8.80;;;5.73;;
15476;SDS011;7840;42.702;23.296;2023-03-31T05:23:54;11.00;;;5.87;;
15476;SDS011;7840;42.702;23.296;2023-03-31T05:26:22;13.07;;;7.60;;
15476;SDS011;7840;42.702;23.296;2023-03-31T05:28:50;12.63;;;6.80;;
15476;SDS011;7840;42.702;23.296;2023-03-31T05:31:17;19.33;;;9.00;;
15476;SDS011;7840;42.702;23.296;2023-03-31T05:33:45;11.77;;;8.57;;
15476;SDS011;7840;42.702;23.296;2023-03-31T05:36:15;17.77;;;9.13;;
15476;SDS011;7840;42.702;23.296;2023-03-31T05:38:42;15.47;;;7.63;;
15476;SDS011;7840;42.702;23.296;2023-03-31T05:41:11;12.00;;;6.63;;
15476;SDS011;7840;42.702;23.296;2023-03-31T05:43:40;13.87;;;6.00;;
15476;SDS011;7840;42.702;23.296;2023-03-31T05:46:08;14.53;;;6.63;;
15476;SDS011;7840;42.702;23.296;2023-03-31T05:48:35;12.03;;;7.00;;
15476;SDS011;7840;42.702;23.296;2023-03-31T05:51:03;17.57;;;7.67;;
15476;SDS011;7840;42.702;23.296;2023-03-31T05:53:32;13.37;;;6.60;;
15476;SDS011;7840;42.702;23.296;2023-03-31T05:55:59;17.13;;;6.80;;
15476;SDS011;7840;42.702;23.296;2023-03-31T05:58:27;12.67;;;7.87;;
15476;SDS011;7840;42.702;23.296;2023-03-31T06:01:04;13.30;;;6.20;;
15476;SDS011;7840;42.702;23.296;2023-03-31T06:03:32;13.47;;;5.10;;
15476;SDS011;7840;42.702;23.296;2023-03-31T06:05:59;7.87;;;3.70;;
15476;SDS011;7840;42.702;23.296;2023-03-31T06:08:27;9.60;;;5.10;;
15476;SDS011;7840;42.702;23.296;2023-03-31T06:10:55;7.93;;;3.57;;
15476;SDS011;7840;42.702;23.296;2023-03-31T06:13:23;7.60;;;3.20;;
15476;SDS011;7840;42.702;23.296;2023-03-31T06:15:53;14.82;;;4.28;;
15476;SDS011;7840;42.702;23.296;2023-03-31T06:18:21;5.38;;;2.50;;
15476;SDS011;7840;42.702;23.296;2023-03-31T06:20:48;5.37;;;3.00;;
15476;SDS011;7840;42.702;23.296;2023-03-31T06:23:16;3.87;;;2.40;;
15476;SDS011;7840;42.702;23.296;2023-03-31T06:25:44;6.25;;;2.70;;
15476;SDS011;7840;42.702;23.296;2023-03-31T06:28:12;3.28;;;2.10;;
15476;SDS011;7840;42.702;23.296;2023-03-31T06:30:40;4.07;;;2.30;;
15476;SDS011;7840;42.702;23.296;2023-03-31T06:33:07;5.77;;;2.30;;
15476;SDS011;7840;42.702;23.296;2023-03-31T06:35:36;4.38;;;2.72;;
15476;SDS011;7840;42.702;23.296;2023-03-31T06:38:04;6.53;;;2.30;;
15476;SDS011;7840;42.702;23.296;2023-03-31T06:40:31;5.05;;;2.83;;
15476;SDS011;7840;42.702;23.296;2023-03-31T06:42:58;6.93;;;3.08;;
15476;SDS011;7840;42.702;23.296;2023-03-31T06:45:27;4.43;;;2.42;;
15476;SDS011;7840;42.702;23.296;2023-03-31T06:47:54;5.28;;;2.55;;
15476;SDS011;7840;42.702;23.296;2023-03-31T06:50:22;4.15;;;2.80;;
15476;SDS011;7840;42.702;23.296;2023-03-31T06:52:49;5.65;;;3.20;;
15476;SDS011;7840;42.702;23.296;2023-03-31T06:55:19;4.95;;;2.60;;
15476;SDS011;7840;42.702;23.296;2023-03-31T06:57:46;7.05;;;3.08;;
15476;SDS011;7840;42.702;23.296;2023-03-31T07:00:14;5.03;;;2.08;;
15476;SDS011;7840;42.702;23.296;2023-03-31T07:02:43;5.05;;;2.85;;
15476;SDS011;7840;42.702;23.296;2023-03-31T07:05:10;4.72;;;3.05;;
15476;SDS011;7840;42.702;23.296;2023-03-31T07:07:37;9.07;;;3.58;;
15476;SDS011;7840;42.702;23.296;2023-03-31T07:10:05;8.23;;;3.00;;
15476;SDS011;7840;42.702;23.296;2023-03-31T07:12:32;6.95;;;3.28;;
15476;SDS011;7840;42.702;23.296;2023-03-31T07:15:00;7.28;;;3.22;;
15476;SDS011;7840;42.702;23.296;2023-03-31T07:17:27;5.47;;;2.83;;
15476;SDS011;7840;42.702;23.296;2023-03-31T07:19:56;6.05;;;2.90;;
15476;SDS011;7840;42.702;23.296;2023-03-31T07:22:24;8.15;;;2.90;;
15476;SDS011;7840;42.702;23.296;2023-03-31T07:24:51;4.18;;;2.80;;
15476;SDS011;7840;42.702;23.296;2023-03-31T07:27:19;3.55;;;2.45;;
15476;SDS011;7840;42.702;23.296;2023-03-31T07:29:46;5.15;;;3.20;;
15476;SDS011;7840;42.702;23.296;2023-03-31T07:32:14;5.70;;;3.65;;
15476;SDS011;7840;42.702;23.296;2023-03-31T07:34:42;5.25;;;3.15;;
15476;SDS011;7840;42.702;23.296;2023-03-31T07:37:11;8.32;;;3.03;;
15476;SDS011;7840;42.702;23.296;2023-03-31T07:39:38;5.22;;;3.65;;
15476;SDS011;7840;42.702;23.296;2023-03-31T07:42:06;8.50;;;3.60;;
15476;SDS011;7840;42.702;23.296;2023-03-31T07:44:33;7.85;;;4.30;;
15476;SDS011;7840;42.702;23.296;2023-03-31T07:47:01;10.18;;;3.67;;
15476;SDS011;7840;42.702;23.296;2023-03-31T07:49:30;8.57;;;3.08;;
15476;SDS011;7840;42.702;23.296;2023-03-31T07:51:57;5.15;;;3.13;;
15476;SDS011;7840;42.702;23.296;2023-03-31T07:54:26;5.53;;;3.65;;
15476;SDS011;7840;42.702;23.296;2023-03-31T07:56:53;8.27;;;3.38;;
15476;SDS011;7840;42.702;23.296;2023-03-31T07:59:20;7.80;;;3.22;;
15476;SDS011;7840;42.702;23.296;2023-03-31T08:01:48;8.57;;;3.20;;
15476;SDS011;7840;42.702;23.296;2023-03-31T08:04:15;6.78;;;3.47;;
15476;SDS011;7840;42.702;23.296;2023-03-31T08:06:42;7.15;;;3.15;;
15476;SDS011;7840;42.702;23.296;2023-03-31T08:09:09;6.05;;;3.08;;
15476;SDS011;7840;42.702;23.296;2023-03-31T08:11:38;4.35;;;2.95;;
15476;SDS011;7840;42.702;23.296;2023-03-31T08:14:05;7.57;;;3.08;;
15476;SDS011;7840;42.702;23.296;2023-03-31T08:16:33;10.95;;;2.97;;
15476;SDS011;7840;42.702;23.296;2023-03-31T08:19:03;11.32;;;3.15;;
15476;SDS011;7840;42.702;23.296;2023-03-31T08:21:30;9.20;;;3.22;;
15476;SDS011;7840;42.702;23.296;2023-03-31T08:23:58;6.15;;;2.80;;
15476;SDS011;7840;42.702;23.296;2023-03-31T08:26:25;4.80;;;2.75;;
15476;SDS011;7840;42.702;23.296;2023-03-31T08:28:54;6.15;;;2.58;;
15476;SDS011;7840;42.702;23.296;2023-03-31T08:31:23;7.85;;;2.80;;
15476;SDS011;7840;42.702;23.296;2023-03-31T08:33:53;4.82;;;2.88;;
15476;SDS011;7840;42.702;23.296;2023-03-31T08:36:21;5.80;;;2.80;;
15476;SDS011;7840;42.702;23.296;2023-03-31T08:38:49;6.50;;;3.10;;
15476;SDS011;7840;42.702;23.296;2023-03-31T08:41:26;8.77;;;3.25;;
15476;SDS011;7840;42.702;23.296;2023-03-31T08:43:57;8.50;;;2.92;;
15476;SDS011;7840;42.702;23.296;2023-03-31T08:46:26;6.35;;;3.13;;
15476;SDS011;7840;42.702;23.296;2023-03-31T08:48:55;9.50;;;2.80;;
15476;SDS011;7840;42.702;23.296;2023-03-31T08:51:24;5.60;;;2.58;;
15476;SDS011;7840;42.702;23.296;2023-03-31T08:53:54;7.13;;;2.70;;
15476;SDS011;7840;42.702;23.296;2023-03-31T08:56:22;5.13;;;2.50;;
15476;SDS011;7840;42.702;23.296;2023-03-31T08:58:51;10.60;;;3.30;;
15476;SDS011;7840;42.702;23.296;2023-03-31T09:01:23;6.50;;;2.92;;
15476;SDS011;7840;42.702;23.296;2023-03-31T09:03:56;3.78;;;2.35;;
15476;SDS011;7840;42.702;23.296;2023-03-31T09:06:33;5.68;;;2.70;;
15476;SDS011;7840;42.702;23.296;2023-03-31T09:09:02;7.50;;;3.03;;
15476;SDS011;7840;42.702;23.296;2023-03-31T09:11:34;7.68;;;2.95;;
15476;SDS011;7840;42.702;23.296;2023-03-31T09:16:56;3.60;;;2.30;;
15476;SDS011;7840;42.702;23.296;2023-03-31T09:19:30;7.88;;;2.42;;
15476;SDS011;7840;42.702;23.296;2023-03-31T09:21:59;4.72;;;2.58;;
15476;SDS011;7840;42.702;23.296;2023-03-31T09:24:28;6.95;;;2.47;;
15476;SDS011;7840;42.702;23.296;2023-03-31T09:26:57;4.43;;;2.58;;
15476;SDS011;7840;42.702;23.296;2023-03-31T09:29:27;5.22;;;2.53;;
15476;SDS011;7840;42.702;23.296;2023-03-31T09:32:00;7.57;;;2.45;;
15476;SDS011;7840;42.702;23.296;2023-03-31T09:34:28;7.13;;;2.40;;
15476;SDS011;7840;42.702;23.296;2023-03-31T09:36:56;6.30;;;2.53;;
15476;SDS011;7840;42.702;23.296;2023-03-31T09:39:23;4.78;;;2.53;;
15476;SDS011;7840;42.702;23.296;2023-03-31T09:41:51;5.97;;;2.50;;
15476;SDS011;7840;42.702;23.296;2023-03-31T09:44:26;3.10;;;2.17;;
15476;SDS011;7840;42.702;23.296;2023-03-31T09:46:54;2.88;;;1.70;;
15476;SDS011;7840;42.702;23.296;2023-03-31T09:49:24;10.95;;;2.50;;
15476;SDS011;7840;42.702;23.296;2023-03-31T09:51:58;6.07;;;2.47;;
15476;SDS011;7840;42.702;23.296;2023-03-31T09:54:27;3.50;;;2.10;;
15476;SDS011;7840;42.702;23.296;2023-03-31T09:56:57;7.57;;;2.20;;
15476;SDS011;7840;42.702;23.296;2023-03-31T09:59:29;5.32;;;2.38;;
15476;SDS011;7840;42.702;23.296;2023-03-31T10:01:58;6.93;;;1.90;;
15476;SDS011;7840;42.702;23.296;2023-03-31T10:04:29;5.25;;;1.90;;
15476;SDS011;7840;42.702;23.296;2023-03-31T10:06:58;6.85;;;2.15;;
15476;SDS011;7840;42.702;23.296;2023-03-31T10:09:26;4.13;;;1.95;;
15476;SDS011;7840;42.702;23.296;2023-03-31T10:11:55;3.58;;;2.13;;
15476;SDS011;7840;42.702;23.296;2023-03-31T10:14:24;6.75;;;2.47;;
15476;SDS011;7840;42.702;23.296;2023-03-31T10:16:53;5.13;;;2.55;;
15476;SDS011;7840;42.702;23.296;2023-03-31T10:19:21;7.28;;;2.88;;
15476;SDS011;7840;42.702;23.296;2023-03-31T10:21:55;5.93;;;2.85;;
15476;SDS011;7840;42.702;23.296;2023-03-31T10:24:23;8.25;;;2.10;;
15476;SDS011;7840;42.702;23.296;2023-03-31T10:26:52;5.03;;;2.60;;
15476;SDS011;7840;42.702;23.296;2023-03-31T10:29:21;6.65;;;2.35;;
15476;SDS011;7840;42.702;23.296;2023-03-31T10:31:50;3.22;;;2.30;;
15476;SDS011;7840;42.702;23.296;2023-03-31T10:34:17;7.55;;;2.60;;
15476;SDS011;7840;42.702;23.296;2023-03-31T10:36:46;4.03;;;2.35;;
15476;SDS011;7840;42.702;23.296;2023-03-31T10:39:16;5.53;;;1.92;;
15476;SDS011;7840;42.702;23.296;2023-03-31T10:41:47;4.78;;;2.35;;
15476;SDS011;7840;42.702;23.296;2023-03-31T10:44:29;6.80;;;2.60;;
15476;SDS011;7840;42.702;23.296;2023-03-31T10:47:02;6.88;;;2.20;;
15476;SDS011;7840;42.702;23.296;2023-03-31T10:49:33;5.05;;;2.95;;
15476;SDS011;7840;42.702;23.296;2023-03-31T10:52:08;3.15;;;2.50;;
15476;SDS011;7840;42.702;23.296;2023-03-31T10:54:46;6.25;;;2.40;;
15476;SDS011;7840;42.702;23.296;2023-03-31T10:57:13;4.85;;;2.22;;
15476;SDS011;7840;42.702;23.296;2023-03-31T10:59:44;3.75;;;2.65;;
15476;SDS011;7840;42.702;23.296;2023-03-31T11:02:33;4.07;;;2.53;;
15476;SDS011;7840;42.702;23.296;2023-03-31T11:05:07;6.82;;;2.63;;
15476;SDS011;7840;42.702;23.296;2023-03-31T11:07:41;6.32;;;3.03;;
15476;SDS011;7840;42.702;23.296;2023-03-31T11:10:28;7.82;;;2.25;;
15476;SDS011;7840;42.702;23.296;2023-03-31T11:12:58;5.95;;;2.00;;
15476;SDS011;7840;42.702;23.296;2023-03-31T11:15:28;4.65;;;2.33;;
15476;SDS011;7840;42.702;23.296;2023-03-31T11:18:10;5.75;;;2.22;;
15476;SDS011;7840;42.702;23.296;2023-03-31T11:20:45;8.05;;;2.63;;
15476;SDS011;7840;42.702;23.296;2023-03-31T11:23:16;7.43;;;2.40;;
15476;SDS011;7840;42.702;23.296;2023-03-31T11:25:49;5.10;;;2.40;;
15476;SDS011;7840;42.702;23.296;2023-03-31T11:28:22;6.43;;;2.58;;
15476;SDS011;7840;42.702;23.296;2023-03-31T11:30:53;5.38;;;2.47;;
15476;SDS011;7840;42.702;23.296;2023-03-31T11:33:31;11.18;;;2.40;;
15476;SDS011;7840;42.702;23.296;2023-03-31T11:36:05;6.85;;;2.33;;
15476;SDS011;7840;42.702;23.296;2023-03-31T11:41:24;4.90;;;2.30;;
15476;SDS011;7840;42.702;23.296;2023-03-31T11:43:55;4.75;;;2.30;;
15476;SDS011;7840;42.702;23.296;2023-03-31T11:46:30;3.60;;;2.20;;
15476;SDS011;7840;42.702;23.296;2023-03-31T11:48:58;2.78;;;2.20;;
15476;SDS011;7840;42.702;23.296;2023-03-31T11:51:28;7.40;;;2.58;;
15476;SDS011;7840;42.702;23.296;2023-03-31T11:53:57;8.65;;;2.63;;
15476;SDS011;7840;42.702;23.296;2023-03-31T11:56:28;4.93;;;2.35;;
15476;SDS011;7840;42.702;23.296;2023-03-31T11:58:57;6.43;;;2.30;;
15476;SDS011;7840;42.702;23.296;2023-03-31T12:01:26;4.47;;;2.65;;
15476;SDS011;7840;42.702;23.296;2023-03-31T12:03:58;3.67;;;2.00;;
15476;SDS011;7840;42.702;23.296;2023-03-31T12:06:28;5.93;;;2.50;;
15476;SDS011;7840;42.702;23.296;2023-03-31T12:09:00;8.93;;;2.45;;
15476;SDS011;7840;42.702;23.296;2023-03-31T12:11:32;8.80;;;2.47;;
15476;SDS011;7840;42.702;23.296;2023-03-31T12:14:04;5.00;;;2.20;;
15476;SDS011;7840;42.702;23.296;2023-03-31T12:16:36;3.88;;;2.47;;
15476;SDS011;7840;42.702;23.296;2023-03-31T12:19:05;5.03;;;2.20;;
15476;SDS011;7840;42.702;23.296;2023-03-31T12:21:34;5.60;;;2.30;;
15476;SDS011;7840;42.702;23.296;2023-03-31T12:24:03;7.00;;;2.30;;
15476;SDS011;7840;42.702;23.296;2023-03-31T12:26:34;6.53;;;2.22;;
15476;SDS011;7840;42.702;23.296;2023-03-31T12:29:06;3.08;;;1.85;;
15476;SDS011;7840;42.702;23.296;2023-03-31T12:31:38;5.28;;;2.33;;
15476;SDS011;7840;42.702;23.296;2023-03-31T12:34:07;6.13;;;2.47;;
15476;SDS011;7840;42.702;23.296;2023-03-31T12:36:43;5.57;;;2.17;;
15476;SDS011;7840;42.702;23.296;2023-03-31T12:39:20;5.78;;;2.03;;
15476;SDS011;7840;42.702;23.296;2023-03-31T12:41:57;6.25;;;2.20;;
15476;SDS011;7840;42.702;23.296;2023-03-31T12:44:28;6.13;;;2.20;;
15476;SDS011;7840;42.702;23.296;2023-03-31T12:47:12;3.45;;;2.10;;
15476;SDS011;7840;42.702;23.296;2023-03-31T12:49:54;6.22;;;2.35;;
15476;SDS011;7840;42.702;23.296;2023-03-31T12:52:26;3.97;;;2.35;;
15476;SDS011;7840;42.702;23.296;2023-03-31T12:55:09;3.58;;;2.40;;
15476;SDS011;7840;42.702;23.296;2023-03-31T12:57:44;6.95;;;2.50;;
15476;SDS011;7840;42.702;23.296;2023-03-31T13:05:43;7.45;;;2.20;;
15476;SDS011;7840;42.702;23.296;2023-03-31T13:11:00;4.47;;;2.17;;
15476;SDS011;7840;42.702;23.296;2023-03-31T13:13:30;4.90;;;2.75;;
15476;SDS011;7840;42.702;23.296;2023-03-31T13:15:58;10.05;;;2.42;;
15476;SDS011;7840;42.702;23.296;2023-03-31T13:18:27;7.22;;;2.50;;
15476;SDS011;7840;42.702;23.296;2023-03-31T13:20:58;5.18;;;2.00;;
15476;SDS011;7840;42.702;23.296;2023-03-31T13:23:26;4.45;;;2.00;;
15476;SDS011;7840;42.702;23.296;2023-03-31T13:25:55;4.35;;;2.20;;
15476;SDS011;7840;42.702;23.296;2023-03-31T13:28:26;4.90;;;2.30;;
15476;SDS011;7840;42.702;23.296;2023-03-31T13:30:59;9.73;;;2.53;;
15476;SDS011;7840;42.702;23.296;2023-03-31T13:33:30;6.97;;;2.40;;
15476;SDS011;7840;42.702;23.296;2023-03-31T13:39:00;5.43;;;2.65;;
15476;SDS011;7840;42.702;23.296;2023-03-31T13:41:41;3.13;;;1.92;;
15476;SDS011;7840;42.702;23.296;2023-03-31T13:49:51;2.95;;;2.03;;
15476;SDS011;7840;42.702;23.296;2023-03-31T13:52:25;5.45;;;2.40;;
15476;SDS011;7840;42.702;23.296;2023-03-31T13:55:00;4.85;;;2.40;;
15476;SDS011;7840;42.702;23.296;2023-03-31T13:57:47;5.00;;;2.40;;
15476;SDS011;7840;42.702;23.296;2023-03-31T14:00:23;3.08;;;2.10;;
15476;SDS011;7840;42.702;23.296;2023-03-31T14:03:05;4.05;;;2.30;;
15476;SDS011;7840;42.702;23.296;2023-03-31T14:05:42;3.70;;;2.50;;
15476;SDS011;7840;42.702;23.296;2023-03-31T14:08:13;4.05;;;2.00;;
15476;SDS011;7840;42.702;23.296;2023-03-31T14:10:45;4.15;;;2.13;;
15476;SDS011;7840;42.702;23.296;2023-03-31T14:13:13;4.30;;;2.50;;
15476;SDS011;7840;42.702;23.296;2023-03-31T14:15:41;10.07;;;2.65;;
15476;SDS011;7840;42.702;23.296;2023-03-31T14:18:11;9.00;;;2.78;;
15476;SDS011;7840;42.702;23.296;2023-03-31T14:20:43;7.82;;;2.50;;
15476;SDS011;7840;42.702;23.296;2023-03-31T14:23:26;7.55;;;2.45;;
15476;SDS011;7840;42.702;23.296;2023-03-31T14:25:57;7.85;;;2.47;;
15476;SDS011;7840;42.702;23.296;2023-03-31T14:31:14;5.47;;;2.13;;
15476;SDS011;7840;42.702;23.296;2023-03-31T14:33:47;5.05;;;2.22;;
15476;SDS011;7840;42.702;23.296;2023-03-31T14:36:19;7.60;;;2.15;;
15476;SDS011;7840;42.702;23.296;2023-03-31T14:38:52;5.35;;;2.05;;
15476;SDS011;7840;42.702;23.296;2023-03-31T14:41:20;5.05;;;2.10;;
15476;SDS011;7840;42.702;23.296;2023-03-31T14:43:53;4.45;;;2.58;;
15476;SDS011;7840;42.702;23.296;2023-03-31T14:46:22;4.30;;;2.35;;
15476;SDS011;7840;42.702;23.296;2023-03-31T14:48:50;4.35;;;2.30;;
15476;SDS011;7840;42.702;23.296;2023-03-31T14:51:25;4.53;;;2.30;;
15476;SDS011;7840;42.702;23.296;2023-03-31T14:53:56;8.25;;;2.70;;
15476;SDS011;7840;42.702;23.296;2023-03-31T14:56:26;4.63;;;2.70;;
15476;SDS011;7840;42.702;23.296;2023-03-31T14:58:57;7.75;;;2.83;;
15476;SDS011;7840;42.702;23.296;2023-03-31T15:01:26;7.13;;;2.90;;
15476;SDS011;7840;42.702;23.296;2023-03-31T15:03:58;4.20;;;2.42;;
15476;SDS011;7840;42.702;23.296;2023-03-31T15:06:28;8.48;;;4.75;;
15476;SDS011;7840;42.702;23.296;2023-03-31T15:08:59;6.03;;;2.35;;
15476;SDS011;7840;42.702;23.296;2023-03-31T15:11:28;5.68;;;3.00;;
15476;SDS011;7840;42.702;23.296;2023-03-31T15:13:56;4.95;;;2.90;;
15476;SDS011;7840;42.702;23.296;2023-03-31T15:16:32;6.45;;;3.08;;
15476;SDS011;7840;42.702;23.296;2023-03-31T15:19:06;7.47;;;3.20;;
15476;SDS011;7840;42.702;23.296;2023-03-31T15:21:38;4.95;;;2.90;;
15476;SDS011;7840;42.702;23.296;2023-03-31T15:24:06;5.40;;;2.80;;
15476;SDS011;7840;42.702;23.296;2023-03-31T15:26:34;6.60;;;2.80;;
15476;SDS011;7840;42.702;23.296;2023-03-31T15:29:03;5.43;;;2.75;;
15476;SDS011;7840;42.702;23.296;2023-03-31T15:31:31;3.22;;;2.33;;
15476;SDS011;7840;42.702;23.296;2023-03-31T15:33:58;7.40;;;3.10;;
15476;SDS011;7840;42.702;23.296;2023-03-31T15:36:26;10.10;;;2.90;;
15476;SDS011;7840;42.702;23.296;2023-03-31T15:38:56;6.07;;;2.97;;
15476;SDS011;7840;42.702;23.296;2023-03-31T15:41:27;6.50;;;3.17;;